sensor_id;sensor_type;location;lat;lon;timestamp;pressure;altitude;pressure_sealevel;temperature;humidity
75627;BME280;67372;49.404;11.034;2023-07-30T00:02:10;97649.19;;;18.49;78.76
75627;BME280;67372;49.404;11.034;2023-07-30T00:04:37;97656.22;;;18.50;79.31
75627;BME280;67372;49.404;11.034;2023-07-30T00:07:03;97651.88;;;18.49;79.24
75627;BME280;67372;49.404;11.034;2023-07-30T00:09:30;97652.41;;;18.51;79.10
75627;BME280;67372;49.404;11.034;2023-07-30T00:11:56;97658.63;;;18.51;79.59
75627;BME280;67372;49.404;11.034;2023-07-30T00:14:23;97656.72;;;18.52;79.67
75627;BME280;67372;49.404;11.034;2023-07-30T00:16:49;97672.09;;;18.56;79.43
75627;BME280;67372;49.404;11.034;2023-07-30T00:19:15;97676.41;;;18.57;79.62
75627;BME280;67372;49.404;11.034;2023-07-30T00:21:42;97682.34;;;18.59;79.39
75627;BME280;67372;49.404;11.034;2023-07-30T00:24:09;97685.31;;;18.63;79.43
75627;BME280;67372;49.404;11.034;2023-07-30T00:26:35;97689.06;;;18.67;79.45
75627;BME280;67372;49.404;11.034;2023-07-30T00:29:02;97683.13;;;18.70;79.53
75627;BME280;67372;49.404;11.034;2023-07-30T00:31:28;97699.28;;;18.75;79.21
75627;BME280;67372;49.404;11.034;2023-07-30T00:33:55;97692.75;;;18.81;79.28
75627;BME280;67372;49.404;11.034;2023-07-30T00:36:21;97698.97;;;18.82;79.54
75627;BME280;67372;49.404;11.034;2023-07-30T00:38:47;97700.06;;;18.81;79.41
75627;BME280;67372;49.404;11.034;2023-07-30T00:41:14;97704.38;;;18.82;79.09
75627;BME280;67372;49.404;11.034;2023-07-30T00:43:40;97699.75;;;18.82;79.29
75627;BME280;67372;49.404;11.034;2023-07-30T00:46:07;97700.28;;;18.84;78.95
75627;BME280;67372;49.404;11.034;2023-07-30T00:48:34;97700.81;;;18.86;79.35
75627;BME280;67372;49.404;11.034;2023-07-30T00:51:00;97697.03;;;18.87;79.54
75627;BME280;67372;49.404;11.034;2023-07-30T00:53:27;97688.94;;;18.82;80.52
75627;BME280;67372;49.404;11.034;2023-07-30T00:55:54;97687.63;;;18.80;80.23
75627;BME280;67372;49.404;11.034;2023-07-30T00:58:21;97687.63;;;18.80;80.48
75627;BME280;67372;49.404;11.034;2023-07-30T01:00:47;97686.28;;;18.77;80.52
75627;BME280;67372;49.404;11.034;2023-07-30T01:03:14;97684.69;;;18.76;80.77
75627;BME280;67372;49.404;11.034;2023-07-30T01:05:40;97688.19;;;18.77;80.50
75627;BME280;67372;49.404;11.034;2023-07-30T01:08:07;97687.09;;;18.78;80.54
75627;BME280;67372;49.404;11.034;2023-07-30T01:10:34;97684.63;;;18.81;80.10
75627;BME280;67372;49.404;11.034;2023-07-30T01:13:03;97680.56;;;18.84;80.04
75627;BME280;67372;49.404;11.034;2023-07-30T01:15:31;97687.00;;;18.88;79.84
75627;BME280;67372;49.404;11.034;2023-07-30T01:17:57;97693.47;;;18.92;79.69
75627;BME280;67372;49.404;11.034;2023-07-30T01:20:24;97696.72;;;18.89;81.06
75627;BME280;67372;49.404;11.034;2023-07-30T01:22:50;97696.03;;;18.78;81.68
75627;BME280;67372;49.404;11.034;2023-07-30T01:25:18;97685.78;;;18.75;81.95
75627;BME280;67372;49.404;11.034;2023-07-30T01:27:49;97684.72;;;18.71;82.24
75627;BME280;67372;49.404;11.034;2023-07-30T01:30:27;97677.97;;;18.68;82.22
75627;BME280;67372;49.404;11.034;2023-07-30T01:32:54;97681.75;;;18.67;83.04
75627;BME280;67372;49.404;11.034;2023-07-30T01:35:26;97676.34;;;18.67;82.94
75627;BME280;67372;49.404;11.034;2023-07-30T01:37:53;97666.09;;;18.64;83.75
75627;BME280;67372;49.404;11.034;2023-07-30T01:40:21;97668.28;;;18.62;83.60
75627;BME280;67372;49.404;11.034;2023-07-30T01:42:50;97669.09;;;18.63;83.47
75627;BME280;67372;49.404;11.034;2023-07-30T01:45:17;97675.31;;;18.63;83.69
75627;BME280;67372;49.404;11.034;2023-07-30T01:47:44;97671.22;;;18.66;83.39
75627;BME280;67372;49.404;11.034;2023-07-30T01:50:10;97661.75;;;18.68;83.03
75627;BME280;67372;49.404;11.034;2023-07-30T01:52:37;97667.97;;;18.69;83.12
75627;BME280;67372;49.404;11.034;2023-07-30T01:55:03;97665.81;;;18.71;83.21
75627;BME280;67372;49.404;11.034;2023-07-30T01:57:30;97663.34;;;18.75;82.88
75627;BME280;67372;49.404;11.034;2023-07-30T01:59:56;97657.66;;;18.76;82.48
75627;BME280;67372;49.404;11.034;2023-07-30T02:02:23;97660.06;;;18.78;82.77
75627;BME280;67372;49.404;11.034;2023-07-30T02:04:49;97658.75;;;18.75;83.00
75627;BME280;67372;49.404;11.034;2023-07-30T02:07:16;97651.72;;;18.74;82.88
75627;BME280;67372;49.404;11.034;2023-07-30T02:09:43;97668.22;;;18.73;83.59
75627;BME280;67372;49.404;11.034;2023-07-30T02:12:09;97666.34;;;18.68;83.61
75627;BME280;67372;49.404;11.034;2023-07-30T02:14:35;97678.25;;;18.67;83.95
75627;BME280;67372;49.404;11.034;2023-07-30T02:17:02;97684.75;;;18.66;84.00
75627;BME280;67372;49.404;11.034;2023-07-30T02:19:28;97688.81;;;18.63;84.50
75627;BME280;67372;49.404;11.034;2023-07-30T02:21:55;97686.66;;;18.60;84.78
75627;BME280;67372;49.404;11.034;2023-07-30T02:24:21;97685.59;;;18.56;85.94
75627;BME280;67372;49.404;11.034;2023-07-30T02:26:47;97686.44;;;18.52;85.96
75627;BME280;67372;49.404;11.034;2023-07-30T02:29:14;97688.63;;;18.50;86.76
75627;BME280;67372;49.404;11.034;2023-07-30T02:31:40;97690.50;;;18.49;86.19
75627;BME280;67372;49.404;11.034;2023-07-30T02:34:07;97692.94;;;18.51;85.93
75627;BME280;67372;49.404;11.034;2023-07-30T02:36:33;97692.94;;;18.51;86.79
75627;BME280;67372;49.404;11.034;2023-07-30T02:39:00;97690.75;;;18.53;85.84
75627;BME280;67372;49.404;11.034;2023-07-30T02:41:26;97691.56;;;18.53;85.95
75627;BME280;67372;49.404;11.034;2023-07-30T02:43:53;97688.34;;;18.51;85.77
75627;BME280;67372;49.404;11.034;2023-07-30T02:46:19;97678.09;;;18.48;85.82
75627;BME280;67372;49.404;11.034;2023-07-30T02:48:45;97670.81;;;18.44;86.21
75627;BME280;67372;49.404;11.034;2023-07-30T02:51:12;97677.88;;;18.39;86.09
75627;BME280;67372;49.404;11.034;2023-07-30T02:53:38;97683.81;;;18.36;86.11
75627;BME280;67372;49.404;11.034;2023-07-30T02:56:05;97682.75;;;18.37;85.73
75627;BME280;67372;49.404;11.034;2023-07-30T02:58:31;97677.63;;;18.36;86.47
75627;BME280;67372;49.404;11.034;2023-07-30T03:01:05;97687.66;;;18.30;86.42
75627;BME280;67372;49.404;11.034;2023-07-30T03:03:32;97678.22;;;18.28;86.47
75627;BME280;67372;49.404;11.034;2023-07-30T03:05:59;97685.78;;;18.26;86.37
75627;BME280;67372;49.404;11.034;2023-07-30T03:08:25;97692.00;;;18.26;86.21
75627;BME280;67372;49.404;11.034;2023-07-30T03:10:52;97692.00;;;18.21;86.20
75627;BME280;67372;49.404;11.034;2023-07-30T03:13:18;97691.50;;;18.14;86.95
75627;BME280;67372;49.404;11.034;2023-07-30T03:15:44;97690.19;;;18.06;86.89
75627;BME280;67372;49.404;11.034;2023-07-30T03:18:11;97693.47;;;18.03;86.60
75627;BME280;67372;49.404;11.034;2023-07-30T03:20:37;97695.91;;;18.00;86.84
75627;BME280;67372;49.404;11.034;2023-07-30T03:23:04;97699.69;;;17.99;86.80
75627;BME280;67372;49.404;11.034;2023-07-30T03:25:30;97705.09;;;17.99;87.07
75627;BME280;67372;49.404;11.034;2023-07-30T03:27:56;97702.91;;;17.96;86.83
75627;BME280;67372;49.404;11.034;2023-07-30T03:30:23;97709.41;;;17.95;86.36
75627;BME280;67372;49.404;11.034;2023-07-30T03:32:49;97704.00;;;17.95;86.16
75627;BME280;67372;49.404;11.034;2023-07-30T03:35:16;97702.66;;;17.92;86.13
75627;BME280;67372;49.404;11.034;2023-07-30T03:37:42;97705.63;;;17.91;86.06
75627;BME280;67372;49.404;11.034;2023-07-30T03:40:08;97701.31;;;17.90;85.81
75627;BME280;67372;49.404;11.034;2023-07-30T03:42:35;97707.53;;;17.90;85.63
75627;BME280;67372;49.404;11.034;2023-07-30T03:45:01;97714.00;;;17.89;85.75
75627;BME280;67372;49.404;11.034;2023-07-30T03:47:28;97718.88;;;17.87;85.61
75627;BME280;67372;49.404;11.034;2023-07-30T03:49:54;97719.97;;;17.86;85.57
75627;BME280;67372;49.404;11.034;2023-07-30T03:52:21;97722.13;;;17.84;85.48
75627;BME280;67372;49.404;11.034;2023-07-30T03:54:47;97724.31;;;17.82;84.96
75627;BME280;67372;49.404;11.034;2023-07-30T03:57:13;97721.06;;;17.80;85.31
75627;BME280;67372;49.404;11.034;2023-07-30T03:59:40;97726.47;;;17.80;85.49
75627;BME280;67372;49.404;11.034;2023-07-30T04:02:06;97726.47;;;17.80;85.63
75627;BME280;67372;49.404;11.034;2023-07-30T04:04:32;97721.06;;;17.80;85.57
75627;BME280;67372;49.404;11.034;2023-07-30T04:06:59;97717.28;;;17.81;85.59
75627;BME280;67372;49.404;11.034;2023-07-30T04:09:25;97724.56;;;17.81;85.70
75627;BME280;67372;49.404;11.034;2023-07-30T04:11:52;97729.44;;;17.78;86.59
75627;BME280;67372;49.404;11.034;2023-07-30T04:14:18;97725.41;;;17.76;86.52
75627;BME280;67372;49.404;11.034;2023-07-30T04:16:44;97723.25;;;17.78;86.46
75627;BME280;67372;49.404;11.034;2023-07-30T04:19:11;97714.88;;;17.79;86.46
75627;BME280;67372;49.404;11.034;2023-07-30T04:21:37;97723.78;;;17.80;86.42
75627;BME280;67372;49.404;11.034;2023-07-30T04:24:04;97724.31;;;17.82;86.40
75627;BME280;67372;49.404;11.034;2023-07-30T04:26:31;97726.72;;;17.84;86.15
75627;BME280;67372;49.404;11.034;2023-07-30T04:28:57;97729.94;;;17.86;86.24
75627;BME280;67372;49.404;11.034;2023-07-30T04:31:23;97738.59;;;17.88;86.55
75627;BME280;67372;49.404;11.034;2023-07-30T04:33:50;97729.13;;;17.90;86.60
75627;BME280;67372;49.404;11.034;2023-07-30T04:36:16;97743.69;;;17.94;86.67
75627;BME280;67372;49.404;11.034;2023-07-30T04:38:43;97741.78;;;18.00;86.73
75627;BME280;67372;49.404;11.034;2023-07-30T04:41:09;97748.22;;;18.09;87.06
75627;BME280;67372;49.404;11.034;2023-07-30T04:43:35;97740.59;;;18.21;87.26
75627;BME280;67372;49.404;11.034;2023-07-30T04:46:02;97749.97;;;18.39;87.63
75627;BME280;67372;49.404;11.034;2023-07-30T04:48:28;97756.38;;;18.58;87.72
75627;BME280;67372;49.404;11.034;2023-07-30T04:50:55;97754.13;;;18.76;86.87
75627;BME280;67372;49.404;11.034;2023-07-30T04:53:21;97752.13;;;18.91;85.76
75627;BME280;67372;49.404;11.034;2023-07-30T04:55:47;97757.19;;;19.03;85.06
75627;BME280;67372;49.404;11.034;2023-07-30T04:58:14;97751.69;;;19.13;84.46
75627;BME280;67372;49.404;11.034;2023-07-30T05:00:40;97754.34;;;19.23;84.19
75627;BME280;67372;49.404;11.034;2023-07-30T05:03:07;97743.19;;;19.30;83.65
75627;BME280;67372;49.404;11.034;2023-07-30T05:05:33;97749.34;;;19.36;83.46
75627;BME280;67372;49.404;11.034;2023-07-30T05:07:59;97751.19;;;19.45;83.34
75627;BME280;67372;49.404;11.034;2023-07-30T05:10:26;97751.94;;;19.51;82.94
75627;BME280;67372;49.404;11.034;2023-07-30T05:12:52;97754.59;;;19.56;82.52
75627;BME280;67372;49.404;11.034;2023-07-30T05:15:19;97762.16;;;19.59;82.28
75627;BME280;67372;49.404;11.034;2023-07-30T05:17:45;97772.16;;;19.58;82.29
75627;BME280;67372;49.404;11.034;2023-07-30T05:20:12;97770.56;;;19.57;82.03
75627;BME280;67372;49.404;11.034;2023-07-30T05:22:38;97773.78;;;19.59;81.99
75627;BME280;67372;49.404;11.034;2023-07-30T05:25:05;97771.59;;;19.61;81.99
75627;BME280;67372;49.404;11.034;2023-07-30T05:27:31;97783.22;;;19.67;81.78
75627;BME280;67372;49.404;11.034;2023-07-30T05:29:58;97783.44;;;19.71;81.68
75627;BME280;67372;49.404;11.034;2023-07-30T05:32:25;97798.28;;;19.73;81.72
75627;BME280;67372;49.404;11.034;2023-07-30T05:34:52;97801.81;;;19.74;81.90
75627;BME280;67372;49.404;11.034;2023-07-30T05:37:18;97801.22;;;19.77;81.62
75627;BME280;67372;49.404;11.034;2023-07-30T05:39:44;97792.53;;;19.80;81.64
75627;BME280;67372;49.404;11.034;2023-07-30T05:42:11;97790.88;;;19.84;81.08
75627;BME280;67372;49.404;11.034;2023-07-30T05:44:37;97789.50;;;19.86;80.88
75627;BME280;67372;49.404;11.034;2023-07-30T05:47:04;97790.03;;;19.88;80.68
75627;BME280;67372;49.404;11.034;2023-07-30T05:49:30;97792.47;;;19.85;80.58
75627;BME280;67372;49.404;11.034;2023-07-30T05:51:56;97796.28;;;19.84;80.57
75627;BME280;67372;49.404;11.034;2023-07-30T05:54:23;97797.38;;;19.83;80.79
75627;BME280;67372;49.404;11.034;2023-07-30T05:56:49;97799.00;;;19.84;80.53
75627;BME280;67372;49.404;11.034;2023-07-30T05:59:16;97801.91;;;19.92;80.43
75627;BME280;67372;49.404;11.034;2023-07-30T06:01:47;97801.31;;;19.96;80.32
75627;BME280;67372;49.404;11.034;2023-07-30T06:04:13;97810.47;;;20.00;80.19
75627;BME280;67372;49.404;11.034;2023-07-30T06:06:40;97807.44;;;20.06;80.33
75627;BME280;67372;49.404;11.034;2023-07-30T06:09:06;97800.69;;;20.28;78.82
75627;BME280;67372;49.404;11.034;2023-07-30T06:11:33;97801.16;;;20.35;78.62
75627;BME280;67372;49.404;11.034;2023-07-30T06:13:59;97796.97;;;20.47;78.27
75627;BME280;67372;49.404;11.034;2023-07-30T06:16:26;97802.34;;;20.71;77.61
75627;BME280;67372;49.404;11.034;2023-07-30T06:18:53;97795.03;;;20.91;77.34
75627;BME280;67372;49.404;11.034;2023-07-30T06:21:20;97790.63;;;21.13;77.03
75627;BME280;67372;49.404;11.034;2023-07-30T06:23:46;97787.03;;;21.37;75.99
75627;BME280;67372;49.404;11.034;2023-07-30T06:26:12;97794.16;;;21.65;73.90
75627;BME280;67372;49.404;11.034;2023-07-30T06:28:39;97801.09;;;21.71;71.76
75627;BME280;67372;49.404;11.034;2023-07-30T06:31:05;97805.34;;;21.78;71.19
75627;BME280;67372;49.404;11.034;2023-07-30T06:33:32;97798.81;;;21.79;71.54
75627;BME280;67372;49.404;11.034;2023-07-30T06:35:58;97802.63;;;21.78;71.75
75627;BME280;67372;49.404;11.034;2023-07-30T06:38:25;97806.38;;;21.82;71.43
75627;BME280;67372;49.404;11.034;2023-07-30T06:40:51;97816.03;;;21.88;70.61
75627;BME280;67372;49.404;11.034;2023-07-30T06:43:18;97819.03;;;21.86;71.29
75627;BME280;67372;49.404;11.034;2023-07-30T06:45:44;97815.63;;;21.94;69.90
75627;BME280;67372;49.404;11.034;2023-07-30T06:48:10;97817.75;;;21.97;69.83
75627;BME280;67372;49.404;11.034;2023-07-30T06:50:37;97822.47;;;21.92;69.32
75627;BME280;67372;49.404;11.034;2023-07-30T06:53:03;97827.19;;;21.86;69.01
75627;BME280;67372;49.404;11.034;2023-07-30T06:55:29;97831.31;;;21.84;68.94
75627;BME280;67372;49.404;11.034;2023-07-30T06:57:56;97829.66;;;21.69;69.30
75627;BME280;67372;49.404;11.034;2023-07-30T07:00:22;97834.47;;;21.72;68.98
75627;BME280;67372;49.404;11.034;2023-07-30T07:02:49;97837.09;;;21.63;69.74
75627;BME280;67372;49.404;11.034;2023-07-30T07:05:16;97835.88;;;21.69;68.71
75627;BME280;67372;49.404;11.034;2023-07-30T07:07:42;97845.56;;;21.75;68.72
75627;BME280;67372;49.404;11.034;2023-07-30T07:10:09;97840.41;;;21.74;69.17
75627;BME280;67372;49.404;11.034;2023-07-30T07:12:36;97843.13;;;21.74;69.67
75627;BME280;67372;49.404;11.034;2023-07-30T07:15:02;97849.31;;;21.80;69.23
75627;BME280;67372;49.404;11.034;2023-07-30T07:17:29;97841.66;;;21.82;69.07
75627;BME280;67372;49.404;11.034;2023-07-30T07:19:56;97855.69;;;21.70;69.89
75627;BME280;67372;49.404;11.034;2023-07-30T07:22:23;97848.66;;;21.69;69.23
75627;BME280;67372;49.404;11.034;2023-07-30T07:24:51;97847.84;;;21.68;69.72
75627;BME280;67372;49.404;11.034;2023-07-30T07:27:18;97847.56;;;21.70;69.96
75627;BME280;67372;49.404;11.034;2023-07-30T07:29:45;97849.16;;;21.71;69.52
75627;BME280;67372;49.404;11.034;2023-07-30T07:32:11;97840.13;;;21.75;69.49
75627;BME280;67372;49.404;11.034;2023-07-30T07:34:37;97834.31;;;21.82;69.91
75627;BME280;67372;49.404;11.034;2023-07-30T07:37:04;97829.81;;;21.91;69.92
75627;BME280;67372;49.404;11.034;2023-07-30T07:39:32;97830.97;;;22.04;70.06
75627;BME280;67372;49.404;11.034;2023-07-30T07:41:59;97835.50;;;22.22;69.41
75627;BME280;67372;49.404;11.034;2023-07-30T07:44:25;97837.63;;;22.39;69.01
75627;BME280;67372;49.404;11.034;2023-07-30T07:46:51;97830.91;;;22.50;68.86
75627;BME280;67372;49.404;11.034;2023-07-30T07:49:18;97838.84;;;22.60;68.68
75627;BME280;67372;49.404;11.034;2023-07-30T07:51:44;97837.13;;;22.64;68.18
75627;BME280;67372;49.404;11.034;2023-07-30T07:54:11;97828.56;;;22.71;67.90
75627;BME280;67372;49.404;11.034;2023-07-30T07:56:37;97834.00;;;22.71;67.22
75627;BME280;67372;49.404;11.034;2023-07-30T07:59:03;97838.94;;;22.69;66.97
75627;BME280;67372;49.404;11.034;2023-07-30T08:01:30;97838.63;;;22.71;66.89
75627;BME280;67372;49.404;11.034;2023-07-30T08:03:56;97835.91;;;22.71;67.20
75627;BME280;67372;49.404;11.034;2023-07-30T08:06:23;97835.22;;;22.79;67.21
75627;BME280;67372;49.404;11.034;2023-07-30T08:08:49;97831.69;;;22.92;66.62
75627;BME280;67372;49.404;11.034;2023-07-30T08:11:16;97835.81;;;23.03;65.45
75627;BME280;67372;49.404;11.034;2023-07-30T08:13:42;97836.09;;;23.02;65.91
75627;BME280;67372;49.404;11.034;2023-07-30T08:16:08;97832.88;;;23.00;65.64
75627;BME280;67372;49.404;11.034;2023-07-30T08:18:35;97830.34;;;23.03;65.39
75627;BME280;67372;49.404;11.034;2023-07-30T08:21:01;97830.84;;;23.05;65.40
75627;BME280;67372;49.404;11.034;2023-07-30T08:23:28;97826.22;;;23.06;64.57
75627;BME280;67372;49.404;11.034;2023-07-30T08:25:54;97831.41;;;23.16;64.58
75627;BME280;67372;49.404;11.034;2023-07-30T08:28:21;97828.16;;;23.27;64.53
75627;BME280;67372;49.404;11.034;2023-07-30T08:30:47;97829.78;;;23.51;64.57
75627;BME280;67372;49.404;11.034;2023-07-30T08:33:13;97826.34;;;23.59;64.02
75627;BME280;67372;49.404;11.034;2023-07-30T08:35:40;97830.78;;;23.77;62.78
75627;BME280;67372;49.404;11.034;2023-07-30T08:38:06;97828.97;;;23.95;61.51
75627;BME280;67372;49.404;11.034;2023-07-30T08:40:33;97826.59;;;24.02;61.67
75627;BME280;67372;49.404;11.034;2023-07-30T08:42:59;97840.25;;;24.11;62.37
75627;BME280;67372;49.404;11.034;2023-07-30T08:45:28;97835.91;;;24.32;60.65
75627;BME280;67372;49.404;11.034;2023-07-30T08:47:55;97834.16;;;24.36;61.02
75627;BME280;67372;49.404;11.034;2023-07-30T08:50:22;97831.13;;;24.38;60.63
75627;BME280;67372;49.404;11.034;2023-07-30T08:52:49;97835.50;;;24.47;60.91
75627;BME280;67372;49.404;11.034;2023-07-30T08:55:16;97833.13;;;24.63;60.74
75627;BME280;67372;49.404;11.034;2023-07-30T08:57:44;97832.34;;;24.80;60.48
75627;BME280;67372;49.404;11.034;2023-07-30T09:00:11;97826.97;;;25.06;58.50
75627;BME280;67372;49.404;11.034;2023-07-30T09:02:47;97833.09;;;25.12;57.21
75627;BME280;67372;49.404;11.034;2023-07-30T09:05:14;97830.34;;;25.03;56.79
75627;BME280;67372;49.404;11.034;2023-07-30T09:07:41;97829.84;;;25.01;57.87
75627;BME280;67372;49.404;11.034;2023-07-30T09:10:08;97836.47;;;25.08;58.31
75627;BME280;67372;49.404;11.034;2023-07-30T09:12:35;97841.13;;;25.17;58.37
75627;BME280;67372;49.404;11.034;2023-07-30T09:15:02;97841.75;;;25.22;57.55
75627;BME280;67372;49.404;11.034;2023-07-30T09:17:30;97829.22;;;25.30;57.02
75627;BME280;67372;49.404;11.034;2023-07-30T09:19:58;97840.47;;;25.20;56.81
75627;BME280;67372;49.404;11.034;2023-07-30T09:22:26;97832.44;;;25.15;57.15
75627;BME280;67372;49.404;11.034;2023-07-30T09:24:54;97826.94;;;24.97;57.06
75627;BME280;67372;49.404;11.034;2023-07-30T09:27:22;97821.69;;;25.09;57.67
75627;BME280;67372;49.404;11.034;2023-07-30T09:29:53;97823.94;;;25.25;56.65
75627;BME280;67372;49.404;11.034;2023-07-30T09:32:24;97822.63;;;25.31;55.71
75627;BME280;67372;49.404;11.034;2023-07-30T09:34:51;97822.16;;;25.46;55.42
75627;BME280;67372;49.404;11.034;2023-07-30T09:37:17;97822.97;;;25.47;55.50
75627;BME280;67372;49.404;11.034;2023-07-30T09:39:47;97828.09;;;25.48;54.73
75627;BME280;67372;49.404;11.034;2023-07-30T09:42:14;97823.91;;;25.51;55.58
75627;BME280;67372;49.404;11.034;2023-07-30T09:44:40;97826.34;;;25.26;55.45
75627;BME280;67372;49.404;11.034;2023-07-30T09:47:10;97827.16;;;25.09;55.68
75627;BME280;67372;49.404;11.034;2023-07-30T09:49:37;97831.81;;;25.18;54.46
75627;BME280;67372;49.404;11.034;2023-07-30T09:52:05;97826.47;;;25.04;56.00
75627;BME280;67372;49.404;11.034;2023-07-30T09:54:33;97829.22;;;25.04;56.25
75627;BME280;67372;49.404;11.034;2023-07-30T09:56:59;97825.22;;;25.10;55.38
75627;BME280;67372;49.404;11.034;2023-07-30T09:59:27;97822.81;;;25.17;55.25
75627;BME280;67372;49.404;11.034;2023-07-30T10:01:53;97820.41;;;25.16;55.74
75627;BME280;67372;49.404;11.034;2023-07-30T10:04:21;97820.06;;;25.00;55.91
75627;BME280;67372;49.404;11.034;2023-07-30T10:07:04;97824.22;;;24.97;55.58
75627;BME280;67372;49.404;11.034;2023-07-30T10:09:36;97825.94;;;24.67;55.56
75627;BME280;67372;49.404;11.034;2023-07-30T10:12:03;97825.06;;;24.58;56.07
75627;BME280;67372;49.404;11.034;2023-07-30T10:14:30;97823.47;;;24.48;56.63
75627;BME280;67372;49.404;11.034;2023-07-30T10:16:59;97828.75;;;24.45;57.05
75627;BME280;67372;49.404;11.034;2023-07-30T10:19:27;97833.91;;;24.15;58.18
75627;BME280;67372;49.404;11.034;2023-07-30T10:24:41;97855.84;;;23.66;61.27
75627;BME280;67372;49.404;11.034;2023-07-30T10:27:08;97854.94;;;23.34;63.80
75627;BME280;67372;49.404;11.034;2023-07-30T10:29:35;97854.75;;;22.94;65.35
75627;BME280;67372;49.404;11.034;2023-07-30T10:32:02;97869.25;;;22.62;67.09
75627;BME280;67372;49.404;11.034;2023-07-30T10:34:45;97865.72;;;22.34;67.93
75627;BME280;67372;49.404;11.034;2023-07-30T10:37:17;97875.81;;;22.01;70.18
75627;BME280;67372;49.404;11.034;2023-07-30T10:39:48;97885.72;;;21.79;69.98
75627;BME280;67372;49.404;11.034;2023-07-30T10:42:14;97885.25;;;21.58;69.98
75627;BME280;67372;49.404;11.034;2023-07-30T10:44:44;97881.34;;;21.45;72.26
75627;BME280;67372;49.404;11.034;2023-07-30T10:47:10;97882.44;;;21.44;71.19
75627;BME280;67372;49.404;11.034;2023-07-30T10:50:00;97878.78;;;21.54;70.68
75627;BME280;67372;49.404;11.034;2023-07-30T10:52:27;97872.38;;;21.63;71.77
75627;BME280;67372;49.404;11.034;2023-07-30T10:55:00;97875.38;;;21.81;70.26
75627;BME280;67372;49.404;11.034;2023-07-30T10:57:32;97871.94;;;22.21;66.63
75627;BME280;67372;49.404;11.034;2023-07-30T10:59:59;97870.06;;;22.35;65.85
75627;BME280;67372;49.404;11.034;2023-07-30T11:02:28;97872.00;;;22.49;65.00
75627;BME280;67372;49.404;11.034;2023-07-30T11:04:54;97869.97;;;22.54;65.21
75627;BME280;67372;49.404;11.034;2023-07-30T11:07:21;97873.81;;;22.53;63.57
75627;BME280;67372;49.404;11.034;2023-07-30T11:09:58;97874.13;;;22.52;64.58
75627;BME280;67372;49.404;11.034;2023-07-30T11:12:25;97873.09;;;22.61;63.91
75627;BME280;67372;49.404;11.034;2023-07-30T11:14:51;97876.00;;;22.79;63.35
75627;BME280;67372;49.404;11.034;2023-07-30T11:17:25;97878.53;;;22.89;63.89
75627;BME280;67372;49.404;11.034;2023-07-30T11:19:52;97871.75;;;23.14;62.17
75627;BME280;67372;49.404;11.034;2023-07-30T11:22:29;97869.31;;;23.26;63.05
75627;BME280;67372;49.404;11.034;2023-07-30T11:24:56;97871.47;;;23.38;62.55
75627;BME280;67372;49.404;11.034;2023-07-30T11:27:23;97876.81;;;23.43;63.00
75627;BME280;67372;49.404;11.034;2023-07-30T11:29:56;97870.41;;;23.61;60.92
75627;BME280;67372;49.404;11.034;2023-07-30T11:32:23;97872.19;;;23.66;61.95
75627;BME280;67372;49.404;11.034;2023-07-30T11:34:49;97869.75;;;23.78;61.17
75627;BME280;67372;49.404;11.034;2023-07-30T11:37:16;97867.13;;;23.95;61.56
75627;BME280;67372;49.404;11.034;2023-07-30T11:39:43;97871.78;;;24.26;59.26
75627;BME280;67372;49.404;11.034;2023-07-30T11:42:10;97871.91;;;24.21;60.08
75627;BME280;67372;49.404;11.034;2023-07-30T11:44:38;97870.91;;;24.39;57.08
75627;BME280;67372;49.404;11.034;2023-07-30T11:47:06;97882.81;;;24.43;57.76
75627;BME280;67372;49.404;11.034;2023-07-30T11:49:32;97873.03;;;24.51;55.82
75627;BME280;67372;49.404;11.034;2023-07-30T11:52:09;97871.59;;;24.44;56.26
75627;BME280;67372;49.404;11.034;2023-07-30T11:54:37;97876.19;;;24.35;56.95
75627;BME280;67372;49.404;11.034;2023-07-30T11:57:03;97880.50;;;24.36;55.63
75627;BME280;67372;49.404;11.034;2023-07-30T11:59:30;97876.19;;;24.35;55.08
75627;BME280;67372;49.404;11.034;2023-07-30T12:01:57;97880.41;;;24.19;56.96
75627;BME280;67372;49.404;11.034;2023-07-30T12:04:23;97875.94;;;24.23;56.93
75627;BME280;67372;49.404;11.034;2023-07-30T12:06:52;97878.50;;;24.19;56.60
75627;BME280;67372;49.404;11.034;2023-07-30T12:09:21;97880.66;;;24.31;54.05
75627;BME280;67372;49.404;11.034;2023-07-30T12:12:01;97871.69;;;24.08;55.22
75627;BME280;67372;49.404;11.034;2023-07-30T12:14:43;97868.75;;;23.96;55.80
75627;BME280;67372;49.404;11.034;2023-07-30T12:17:10;97864.81;;;23.88;57.47
75627;BME280;67372;49.404;11.034;2023-07-30T12:19:36;97864.13;;;24.05;56.64
75627;BME280;67372;49.404;11.034;2023-07-30T12:22:03;97868.06;;;23.91;55.83
75627;BME280;67372;49.404;11.034;2023-07-30T12:24:30;97860.88;;;23.95;53.09
75627;BME280;67372;49.404;11.034;2023-07-30T12:26:56;97863.50;;;24.08;48.59
75627;BME280;67372;49.404;11.034;2023-07-30T12:29:24;97856.75;;;24.06;49.34
75627;BME280;67372;49.404;11.034;2023-07-30T12:31:51;97864.63;;;24.07;48.40
75627;BME280;67372;49.404;11.034;2023-07-30T12:34:17;97861.97;;;24.16;50.23
75627;BME280;67372;49.404;11.034;2023-07-30T12:36:43;97861.97;;;24.16;51.19
75627;BME280;67372;49.404;11.034;2023-07-30T12:39:10;97859.09;;;24.21;49.90
75627;BME280;67372;49.404;11.034;2023-07-30T12:41:36;97862.63;;;24.53;50.33
75627;BME280;67372;49.404;11.034;2023-07-30T12:44:03;97842.88;;;24.56;50.88
75627;BME280;67372;49.404;11.034;2023-07-30T12:46:30;97851.59;;;24.66;49.14
75627;BME280;67372;49.404;11.034;2023-07-30T12:48:57;97854.34;;;24.66;49.55
75627;BME280;67372;49.404;11.034;2023-07-30T12:51:23;97858.09;;;24.88;47.53
75627;BME280;67372;49.404;11.034;2023-07-30T12:53:50;97853.78;;;25.04;46.91